sensor_id;sensor_type;location;lat;lon;timestamp;P1;durP1;ratioP1;P2;durP2;ratioP2
52888;SDS011;41413;52.770;6.892;2023-04-24T00:00:46;2.95;;;2.72;;
52888;SDS011;41413;52.770;6.892;2023-04-24T00:03:13;2.60;;;2.50;;
52888;SDS011;41413;52.770;6.892;2023-04-24T00:05:40;3.05;;;2.85;;
52888;SDS011;41413;52.770;6.892;2023-04-24T00:08:07;3.45;;;2.90;;
52888;SDS011;41413;52.770;6.892;2023-04-24T00:10:34;3.60;;;3.40;;
52888;SDS011;41413;52.770;6.892;2023-04-24T00:13:01;3.95;;;3.65;;
52888;SDS011;41413;52.770;6.892;2023-04-24T00:15:28;3.13;;;2.92;;
52888;SDS011;41413;52.770;6.892;2023-04-24T00:17:54;3.85;;;3.65;;
52888;SDS011;41413;52.770;6.892;2023-04-24T00:20:21;4.75;;;3.50;;
52888;SDS011;41413;52.770;6.892;2023-04-24T00:22:48;4.18;;;3.88;;
52888;SDS011;41413;52.770;6.892;2023-04-24T00:25:15;3.55;;;3.28;;
52888;SDS011;41413;52.770;6.892;2023-04-24T00:27:42;4.15;;;3.25;;
52888;SDS011;41413;52.770;6.892;2023-04-24T00:30:09;3.38;;;3.17;;
52888;SDS011;41413;52.770;6.892;2023-04-24T00:32:36;2.78;;;2.58;;
52888;SDS011;41413;52.770;6.892;2023-04-24T00:35:02;2.70;;;2.33;;
52888;SDS011;41413;52.770;6.892;2023-04-24T00:37:30;2.25;;;2.15;;
52888;SDS011;41413;52.770;6.892;2023-04-24T00:39:56;2.45;;;2.25;;
52888;SDS011;41413;52.770;6.892;2023-04-24T00:42:23;1.88;;;1.77;;
52888;SDS011;41413;52.770;6.892;2023-04-24T00:44:50;2.03;;;1.70;;
52888;SDS011;41413;52.770;6.892;2023-04-24T00:47:17;1.75;;;1.65;;
52888;SDS011;41413;52.770;6.892;2023-04-24T00:49:45;1.88;;;1.70;;
52888;SDS011;41413;52.770;6.892;2023-04-24T00:52:12;3.17;;;1.73;;
52888;SDS011;41413;52.770;6.892;2023-04-24T00:54:44;2.20;;;1.98;;
52888;SDS011;41413;52.770;6.892;2023-04-24T00:57:11;1.75;;;1.45;;
52888;SDS011;41413;52.770;6.892;2023-04-24T00:59:41;4.30;;;1.70;;
52888;SDS011;41413;52.770;6.892;2023-04-24T01:02:09;1.67;;;1.58;;
52888;SDS011;41413;52.770;6.892;2023-04-24T01:04:37;1.77;;;1.55;;
52888;SDS011;41413;52.770;6.892;2023-04-24T01:07:04;2.42;;;1.98;;
52888;SDS011;41413;52.770;6.892;2023-04-24T01:09:39;1.83;;;1.73;;
52888;SDS011;41413;52.770;6.892;2023-04-24T01:12:10;3.33;;;2.35;;
52888;SDS011;41413;52.770;6.892;2023-04-24T01:14:37;2.50;;;2.30;;
52888;SDS011;41413;52.770;6.892;2023-04-24T01:17:04;2.80;;;2.28;;
52888;SDS011;41413;52.770;6.892;2023-04-24T01:19:31;2.83;;;2.63;;
52888;SDS011;41413;52.770;6.892;2023-04-24T01:21:58;2.38;;;2.20;;
52888;SDS011;41413;52.770;6.892;2023-04-24T01:24:28;2.50;;;2.40;;
52888;SDS011;41413;52.770;6.892;2023-04-24T01:26:56;3.70;;;2.80;;
52888;SDS011;41413;52.770;6.892;2023-04-24T01:29:23;2.90;;;2.70;;
52888;SDS011;41413;52.770;6.892;2023-04-24T01:31:50;3.60;;;3.40;;
52888;SDS011;41413;52.770;6.892;2023-04-24T01:34:17;3.00;;;2.80;;
52888;SDS011;41413;52.770;6.892;2023-04-24T01:36:45;3.92;;;3.63;;
52888;SDS011;41413;52.770;6.892;2023-04-24T01:39:12;4.90;;;4.35;;
52888;SDS011;41413;52.770;6.892;2023-04-24T01:41:39;4.15;;;3.85;;
52888;SDS011;41413;52.770;6.892;2023-04-24T01:44:06;4.82;;;4.43;;
52888;SDS011;41413;52.770;6.892;2023-04-24T01:46:33;5.68;;;5.10;;
52888;SDS011;41413;52.770;6.892;2023-04-24T01:49:02;6.38;;;5.63;;
52888;SDS011;41413;52.770;6.892;2023-04-24T01:51:28;5.80;;;5.40;;
52888;SDS011;41413;52.770;6.892;2023-04-24T01:53:56;6.63;;;6.13;;
52888;SDS011;41413;52.770;6.892;2023-04-24T01:56:22;6.80;;;6.30;;
52888;SDS011;41413;52.770;6.892;2023-04-24T01:58:50;7.45;;;6.75;;
52888;SDS011;41413;52.770;6.892;2023-04-24T02:01:20;8.63;;;7.70;;
52888;SDS011;41413;52.770;6.892;2023-04-24T02:03:47;7.97;;;7.28;;
52888;SDS011;41413;52.770;6.892;2023-04-24T02:06:14;8.70;;;8.00;;
52888;SDS011;41413;52.770;6.892;2023-04-24T02:08:41;6.93;;;6.38;;
52888;SDS011;41413;52.770;6.892;2023-04-24T02:11:10;7.85;;;7.15;;
52888;SDS011;41413;52.770;6.892;2023-04-24T02:13:37;7.15;;;6.55;;
52888;SDS011;41413;52.770;6.892;2023-04-24T02:16:04;6.88;;;6.28;;
52888;SDS011;41413;52.770;6.892;2023-04-24T02:18:30;6.38;;;5.78;;
52888;SDS011;41413;52.770;6.892;2023-04-24T02:20:57;5.80;;;5.40;;
52888;SDS011;41413;52.770;6.892;2023-04-24T02:23:24;6.40;;;6.00;;
52888;SDS011;41413;52.770;6.892;2023-04-24T02:25:51;6.32;;;5.82;;
52888;SDS011;41413;52.770;6.892;2023-04-24T02:28:19;5.90;;;5.50;;
52888;SDS011;41413;52.770;6.892;2023-04-24T02:30:46;5.55;;;5.07;;
52888;SDS011;41413;52.770;6.892;2023-04-24T02:33:12;6.63;;;6.03;;
52888;SDS011;41413;52.770;6.892;2023-04-24T02:35:39;5.95;;;5.45;;
52888;SDS011;41413;52.770;6.892;2023-04-24T02:38:06;5.88;;;5.47;;
52888;SDS011;41413;52.770;6.892;2023-04-24T02:40:32;5.18;;;4.82;;
52888;SDS011;41413;52.770;6.892;2023-04-24T02:42:59;6.00;;;5.50;;
52888;SDS011;41413;52.770;6.892;2023-04-24T02:45:26;5.78;;;5.28;;
52888;SDS011;41413;52.770;6.892;2023-04-24T02:47:52;6.38;;;5.78;;
52888;SDS011;41413;52.770;6.892;2023-04-24T02:50:19;6.07;;;5.47;;
52888;SDS011;41413;52.770;6.892;2023-04-24T02:52:46;5.30;;;4.90;;
52888;SDS011;41413;52.770;6.892;2023-04-24T02:55:12;4.65;;;4.25;;
52888;SDS011;41413;52.770;6.892;2023-04-24T02:57:39;5.05;;;4.65;;
52888;SDS011;41413;52.770;6.892;2023-04-24T03:00:06;4.65;;;4.20;;
52888;SDS011;41413;52.770;6.892;2023-04-24T03:02:33;5.60;;;5.20;;
52888;SDS011;41413;52.770;6.892;2023-04-24T03:05:00;5.32;;;4.80;;
52888;SDS011;41413;52.770;6.892;2023-04-24T03:07:28;5.03;;;4.63;;
52888;SDS011;41413;52.770;6.892;2023-04-24T03:09:54;4.55;;;4.25;;
52888;SDS011;41413;52.770;6.892;2023-04-24T03:12:23;4.50;;;4.10;;
52888;SDS011;41413;52.770;6.892;2023-04-24T03:14:50;4.40;;;4.00;;
52888;SDS011;41413;52.770;6.892;2023-04-24T03:17:17;5.13;;;4.72;;
52888;SDS011;41413;52.770;6.892;2023-04-24T03:19:44;4.00;;;3.70;;
52888;SDS011;41413;52.770;6.892;2023-04-24T03:22:11;5.13;;;4.82;;
52888;SDS011;41413;52.770;6.892;2023-04-24T03:24:38;7.07;;;5.88;;
52888;SDS011;41413;52.770;6.892;2023-04-24T03:27:05;4.57;;;4.28;;
52888;SDS011;41413;52.770;6.892;2023-04-24T03:29:31;5.63;;;5.13;;
52888;SDS011;41413;52.770;6.892;2023-04-24T03:31:58;5.90;;;5.07;;
52888;SDS011;41413;52.770;6.892;2023-04-24T03:34:25;5.65;;;5.15;;
52888;SDS011;41413;52.770;6.892;2023-04-24T03:36:51;5.78;;;5.25;;
52888;SDS011;41413;52.770;6.892;2023-04-24T03:39:18;5.95;;;5.55;;
52888;SDS011;41413;52.770;6.892;2023-04-24T03:41:45;6.07;;;5.68;;
52888;SDS011;41413;52.770;6.892;2023-04-24T03:44:12;6.20;;;5.65;;
52888;SDS011;41413;52.770;6.892;2023-04-24T03:46:38;6.13;;;5.63;;
52888;SDS011;41413;52.770;6.892;2023-04-24T03:49:05;7.45;;;6.00;;
52888;SDS011;41413;52.770;6.892;2023-04-24T03:51:32;7.07;;;6.47;;
52888;SDS011;41413;52.770;6.892;2023-04-24T03:53:58;6.55;;;6.00;;
52888;SDS011;41413;52.770;6.892;2023-04-24T03:56:25;7.78;;;6.80;;
52888;SDS011;41413;52.770;6.892;2023-04-24T03:58:51;6.25;;;5.85;;
52888;SDS011;41413;52.770;6.892;2023-04-24T04:01:18;6.13;;;5.72;;
52888;SDS011;41413;52.770;6.892;2023-04-24T04:03:46;6.05;;;5.55;;
52888;SDS011;41413;52.770;6.892;2023-04-24T04:06:13;5.80;;;5.40;;
52888;SDS011;41413;52.770;6.892;2023-04-24T04:08:40;5.95;;;5.45;;
52888;SDS011;41413;52.770;6.892;2023-04-24T04:11:07;6.22;;;5.65;;
52888;SDS011;41413;52.770;6.892;2023-04-24T04:13:34;5.80;;;5.40;;
52888;SDS011;41413;52.770;6.892;2023-04-24T04:16:00;5.95;;;5.55;;
52888;SDS011;41413;52.770;6.892;2023-04-24T04:18:27;6.55;;;5.95;;
52888;SDS011;41413;52.770;6.892;2023-04-24T04:20:54;6.90;;;6.30;;
52888;SDS011;41413;52.770;6.892;2023-04-24T04:23:21;7.20;;;6.68;;
52888;SDS011;41413;52.770;6.892;2023-04-24T04:25:47;7.63;;;6.78;;
52888;SDS011;41413;52.770;6.892;2023-04-24T04:28:14;9.75;;;8.30;;
52888;SDS011;41413;52.770;6.892;2023-04-24T04:30:41;7.82;;;7.28;;
52888;SDS011;41413;52.770;6.892;2023-04-24T04:33:08;8.10;;;7.40;;
52888;SDS011;41413;52.770;6.892;2023-04-24T04:35:36;7.68;;;7.07;;
52888;SDS011;41413;52.770;6.892;2023-04-24T04:38:03;7.85;;;7.35;;
52888;SDS011;41413;52.770;6.892;2023-04-24T04:40:30;7.38;;;6.88;;
52888;SDS011;41413;52.770;6.892;2023-04-24T04:42:57;7.22;;;6.72;;
52888;SDS011;41413;52.770;6.892;2023-04-24T04:45:24;8.25;;;7.50;;
52888;SDS011;41413;52.770;6.892;2023-04-24T04:47:52;7.00;;;6.50;;
52888;SDS011;41413;52.770;6.892;2023-04-24T04:50:21;8.60;;;8.00;;
52888;SDS011;41413;52.770;6.892;2023-04-24T04:52:48;7.35;;;6.80;;
52888;SDS011;41413;52.770;6.892;2023-04-24T04:55:15;7.03;;;6.53;;
52888;SDS011;41413;52.770;6.892;2023-04-24T04:57:42;8.70;;;7.93;;
52888;SDS011;41413;52.770;6.892;2023-04-24T05:00:09;8.43;;;7.82;;
52888;SDS011;41413;52.770;6.892;2023-04-24T05:02:37;8.43;;;7.72;;
52888;SDS011;41413;52.770;6.892;2023-04-24T05:05:05;7.25;;;6.75;;
52888;SDS011;41413;52.770;6.892;2023-04-24T05:07:32;7.03;;;6.53;;
52888;SDS011;41413;52.770;6.892;2023-04-24T05:09:59;7.10;;;6.60;;
52888;SDS011;41413;52.770;6.892;2023-04-24T05:12:26;7.28;;;6.78;;
52888;SDS011;41413;52.770;6.892;2023-04-24T05:14:53;7.25;;;6.70;;
52888;SDS011;41413;52.770;6.892;2023-04-24T05:17:19;7.15;;;6.70;;
52888;SDS011;41413;52.770;6.892;2023-04-24T05:19:46;8.13;;;7.53;;
52888;SDS011;41413;52.770;6.892;2023-04-24T05:22:14;7.22;;;6.72;;
52888;SDS011;41413;52.770;6.892;2023-04-24T05:24:41;5.90;;;5.50;;
52888;SDS011;41413;52.770;6.892;2023-04-24T05:27:07;5.80;;;5.22;;
52888;SDS011;41413;52.770;6.892;2023-04-24T05:29:34;5.35;;;4.95;;
52888;SDS011;41413;52.770;6.892;2023-04-24T05:32:01;4.88;;;4.53;;
52888;SDS011;41413;52.770;6.892;2023-04-24T05:34:27;4.18;;;3.97;;
52888;SDS011;41413;52.770;6.892;2023-04-24T05:36:54;4.22;;;3.95;;
52888;SDS011;41413;52.770;6.892;2023-04-24T05:39:21;4.38;;;4.03;;
52888;SDS011;41413;52.770;6.892;2023-04-24T05:41:48;3.95;;;3.65;;
52888;SDS011;41413;52.770;6.892;2023-04-24T05:44:14;3.60;;;3.40;;
52888;SDS011;41413;52.770;6.892;2023-04-24T05:46:41;3.83;;;3.53;;
52888;SDS011;41413;52.770;6.892;2023-04-24T05:49:08;3.72;;;3.53;;
52888;SDS011;41413;52.770;6.892;2023-04-24T05:51:35;3.35;;;3.15;;
52888;SDS011;41413;52.770;6.892;2023-04-24T05:54:01;3.65;;;3.38;;
52888;SDS011;41413;52.770;6.892;2023-04-24T05:56:29;3.65;;;3.35;;
52888;SDS011;41413;52.770;6.892;2023-04-24T05:58:55;4.28;;;3.97;;
52888;SDS011;41413;52.770;6.892;2023-04-24T06:01:22;5.45;;;4.55;;
52888;SDS011;41413;52.770;6.892;2023-04-24T06:03:49;4.72;;;4.43;;
52888;SDS011;41413;52.770;6.892;2023-04-24T06:06:16;4.18;;;3.88;;
52888;SDS011;41413;52.770;6.892;2023-04-24T06:08:43;4.15;;;3.85;;
52888;SDS011;41413;52.770;6.892;2023-04-24T06:11:11;6.03;;;4.30;;
52888;SDS011;41413;52.770;6.892;2023-04-24T06:13:38;3.20;;;3.00;;
52888;SDS011;41413;52.770;6.892;2023-04-24T06:16:04;5.22;;;3.30;;
52888;SDS011;41413;52.770;6.892;2023-04-24T06:18:31;2.90;;;2.70;;
52888;SDS011;41413;52.770;6.892;2023-04-24T06:20:58;3.47;;;2.75;;
52888;SDS011;41413;52.770;6.892;2023-04-24T06:23:24;3.65;;;3.20;;
52888;SDS011;41413;52.770;6.892;2023-04-24T06:25:51;2.63;;;2.50;;
52888;SDS011;41413;52.770;6.892;2023-04-24T06:28:18;2.60;;;2.40;;
52888;SDS011;41413;52.770;6.892;2023-04-24T06:30:45;2.72;;;2.53;;
52888;SDS011;41413;52.770;6.892;2023-04-24T06:33:11;2.72;;;2.53;;
52888;SDS011;41413;52.770;6.892;2023-04-24T06:35:47;2.42;;;2.22;;
52888;SDS011;41413;52.770;6.892;2023-04-24T06:38:14;2.22;;;2.13;;
52888;SDS011;41413;52.770;6.892;2023-04-24T06:40:42;2.72;;;2.53;;
52888;SDS011;41413;52.770;6.892;2023-04-24T06:43:11;2.67;;;2.47;;
52888;SDS011;41413;52.770;6.892;2023-04-24T06:45:38;3.50;;;3.20;;
52888;SDS011;41413;52.770;6.892;2023-04-24T06:48:06;3.60;;;3.33;;
52888;SDS011;41413;52.770;6.892;2023-04-24T06:50:33;3.47;;;3.17;;
52888;SDS011;41413;52.770;6.892;2023-04-24T06:52:59;4.30;;;3.90;;
52888;SDS011;41413;52.770;6.892;2023-04-24T06:55:26;4.05;;;3.63;;
52888;SDS011;41413;52.770;6.892;2023-04-24T06:57:53;4.63;;;4.25;;
52888;SDS011;41413;52.770;6.892;2023-04-24T07:00:19;6.03;;;4.70;;
52888;SDS011;41413;52.770;6.892;2023-04-24T07:02:46;4.43;;;4.13;;
52888;SDS011;41413;52.770;6.892;2023-04-24T07:05:13;6.03;;;5.53;;
52888;SDS011;41413;52.770;6.892;2023-04-24T07:07:41;4.55;;;4.15;;
52888;SDS011;41413;52.770;6.892;2023-04-24T07:10:09;6.28;;;4.05;;
52888;SDS011;41413;52.770;6.892;2023-04-24T07:12:36;4.28;;;3.88;;
52888;SDS011;41413;52.770;6.892;2023-04-24T07:15:04;3.85;;;3.45;;
52888;SDS011;41413;52.770;6.892;2023-04-24T07:17:31;3.53;;;3.22;;
52888;SDS011;41413;52.770;6.892;2023-04-24T07:19:58;4.10;;;3.72;;
52888;SDS011;41413;52.770;6.892;2023-04-24T07:22:25;3.30;;;3.10;;
52888;SDS011;41413;52.770;6.892;2023-04-24T07:24:51;4.03;;;3.03;;
52888;SDS011;41413;52.770;6.892;2023-04-24T07:27:18;4.05;;;3.75;;
52888;SDS011;41413;52.770;6.892;2023-04-24T07:29:45;3.58;;;3.28;;
52888;SDS011;41413;52.770;6.892;2023-04-24T07:32:12;4.03;;;3.33;;
52888;SDS011;41413;52.770;6.892;2023-04-24T07:34:39;3.70;;;3.40;;
52888;SDS011;41413;52.770;6.892;2023-04-24T07:37:06;3.03;;;2.83;;
52888;SDS011;41413;52.770;6.892;2023-04-24T07:39:32;3.22;;;2.92;;
52888;SDS011;41413;52.770;6.892;2023-04-24T07:41:59;3.15;;;2.95;;
52888;SDS011;41413;52.770;6.892;2023-04-24T07:44:28;2.30;;;2.20;;
52888;SDS011;41413;52.770;6.892;2023-04-24T07:46:55;2.20;;;2.10;;
52888;SDS011;41413;52.770;6.892;2023-04-24T07:49:22;2.65;;;2.47;;
52888;SDS011;41413;52.770;6.892;2023-04-24T07:51:49;4.60;;;2.78;;
52888;SDS011;41413;52.770;6.892;2023-04-24T07:54:16;3.33;;;2.70;;
52888;SDS011;41413;52.770;6.892;2023-04-24T07:56:43;3.72;;;2.95;;
52888;SDS011;41413;52.770;6.892;2023-04-24T07:59:10;3.25;;;2.97;;
52888;SDS011;41413;52.770;6.892;2023-04-24T08:01:37;4.60;;;2.92;;
52888;SDS011;41413;52.770;6.892;2023-04-24T08:04:04;3.80;;;3.45;;
52888;SDS011;41413;52.770;6.892;2023-04-24T08:06:32;4.15;;;3.75;;
52888;SDS011;41413;52.770;6.892;2023-04-24T08:08:59;5.63;;;4.63;;
52888;SDS011;41413;52.770;6.892;2023-04-24T08:11:26;5.05;;;3.65;;
52888;SDS011;41413;52.770;6.892;2023-04-24T08:13:53;4.45;;;4.05;;
52888;SDS011;41413;52.770;6.892;2023-04-24T08:16:21;3.08;;;2.88;;
52888;SDS011;41413;52.770;6.892;2023-04-24T08:18:50;3.90;;;3.00;;
52888;SDS011;41413;52.770;6.892;2023-04-24T08:21:17;3.97;;;2.83;;
52888;SDS011;41413;52.770;6.892;2023-04-24T08:23:45;3.47;;;3.17;;
52888;SDS011;41413;52.770;6.892;2023-04-24T08:26:12;2.78;;;2.58;;
52888;SDS011;41413;52.770;6.892;2023-04-24T08:28:39;4.47;;;4.18;;
52888;SDS011;41413;52.770;6.892;2023-04-24T08:31:06;5.85;;;4.55;;
52888;SDS011;41413;52.770;6.892;2023-04-24T08:33:33;4.15;;;3.08;;
52888;SDS011;41413;52.770;6.892;2023-04-24T08:36:03;3.50;;;3.20;;
52888;SDS011;41413;52.770;6.892;2023-04-24T08:38:30;3.63;;;2.67;;
52888;SDS011;41413;52.770;6.892;2023-04-24T08:40:58;8.57;;;3.08;;
52888;SDS011;41413;52.770;6.892;2023-04-24T08:43:26;4.07;;;2.42;;
52888;SDS011;41413;52.770;6.892;2023-04-24T08:45:55;2.33;;;2.13;;
52888;SDS011;41413;52.770;6.892;2023-04-24T08:48:23;3.20;;;2.45;;
52888;SDS011;41413;52.770;6.892;2023-04-24T08:50:57;2.33;;;2.03;;
52888;SDS011;41413;52.770;6.892;2023-04-24T08:53:25;7.35;;;2.65;;
52888;SDS011;41413;52.770;6.892;2023-04-24T08:55:54;4.30;;;2.50;;
52888;SDS011;41413;52.770;6.892;2023-04-24T08:58:22;4.20;;;2.20;;
52888;SDS011;41413;52.770;6.892;2023-04-24T09:00:51;3.63;;;2.78;;
52888;SDS011;41413;52.770;6.892;2023-04-24T09:03:20;4.03;;;3.25;;
52888;SDS011;41413;52.770;6.892;2023-04-24T09:05:48;5.25;;;4.72;;
52888;SDS011;41413;52.770;6.892;2023-04-24T09:08:17;8.43;;;5.22;;
52888;SDS011;41413;52.770;6.892;2023-04-24T09:10:45;7.25;;;6.50;;
52888;SDS011;41413;52.770;6.892;2023-04-24T09:13:14;12.27;;;8.63;;
52888;SDS011;41413;52.770;6.892;2023-04-24T09:15:42;9.85;;;8.85;;
52888;SDS011;41413;52.770;6.892;2023-04-24T09:18:08;10.70;;;9.50;;
52888;SDS011;41413;52.770;6.892;2023-04-24T09:20:56;10.48;;;9.48;;
52888;SDS011;41413;52.770;6.892;2023-04-24T09:23:29;11.20;;;10.05;;
52888;SDS011;41413;52.770;6.892;2023-04-24T09:25:57;15.77;;;10.63;;
52888;SDS011;41413;52.770;6.892;2023-04-24T09:28:29;10.65;;;9.60;;
52888;SDS011;41413;52.770;6.892;2023-04-24T09:31:06;15.13;;;10.82;;
52888;SDS011;41413;52.770;6.892;2023-04-24T09:33:36;15.10;;;10.63;;
52888;SDS011;41413;52.770;6.892;2023-04-24T09:36:03;11.98;;;10.75;;
52888;SDS011;41413;52.770;6.892;2023-04-24T09:38:36;11.85;;;10.75;;
52888;SDS011;41413;52.770;6.892;2023-04-24T09:41:05;11.85;;;10.85;;
52888;SDS011;41413;52.770;6.892;2023-04-24T09:43:33;13.75;;;12.45;;
52888;SDS011;41413;52.770;6.892;2023-04-24T09:46:05;20.58;;;13.40;;
52888;SDS011;41413;52.770;6.892;2023-04-24T09:48:34;16.40;;;14.82;;
52888;SDS011;41413;52.770;6.892;2023-04-24T09:51:03;18.20;;;16.35;;
52888;SDS011;41413;52.770;6.892;2023-04-24T09:53:33;19.70;;;16.23;;
52888;SDS011;41413;52.770;6.892;2023-04-24T09:56:06;23.58;;;18.02;;
52888;SDS011;41413;52.770;6.892;2023-04-24T09:58:34;20.67;;;18.13;;
52888;SDS011;41413;52.770;6.892;2023-04-24T10:01:02;19.25;;;17.42;;
52888;SDS011;41413;52.770;6.892;2023-04-24T10:03:30;18.23;;;16.33;;
52888;SDS011;41413;52.770;6.892;2023-04-24T10:05:58;19.63;;;17.27;;
52888;SDS011;41413;52.770;6.892;2023-04-24T10:08:35;20.00;;;16.92;;
52888;SDS011;41413;52.770;6.892;2023-04-24T10:11:03;17.05;;;15.35;;
52888;SDS011;41413;52.770;6.892;2023-04-24T10:13:30;20.20;;;15.88;;
52888;SDS011;41413;52.770;6.892;2023-04-24T10:15:59;16.45;;;14.75;;
52888;SDS011;41413;52.770;6.892;2023-04-24T10:18:27;16.58;;;14.88;;
52888;SDS011;41413;52.770;6.892;2023-04-24T10:20:54;18.08;;;15.70;;
52888;SDS011;41413;52.770;6.892;2023-04-24T10:23:21;15.23;;;13.63;;
52888;SDS011;41413;52.770;6.892;2023-04-24T10:25:49;14.52;;;13.02;;
52888;SDS011;41413;52.770;6.892;2023-04-24T10:28:17;14.82;;;12.93;;
52888;SDS011;41413;52.770;6.892;2023-04-24T10:30:45;16.52;;;11.82;;
52888;SDS011;41413;52.770;6.892;2023-04-24T10:33:13;12.77;;;10.48;;
52888;SDS011;41413;52.770;6.892;2023-04-24T10:35:42;14.23;;;12.77;;
52888;SDS011;41413;52.770;6.892;2023-04-24T10:38:12;17.80;;;13.02;;
52888;SDS011;41413;52.770;6.892;2023-04-24T10:40:41;13.80;;;12.30;;
52888;SDS011;41413;52.770;6.892;2023-04-24T10:43:09;14.07;;;12.18;;
52888;SDS011;41413;52.770;6.892;2023-04-24T10:45:38;12.80;;;11.27;;
52888;SDS011;41413;52.770;6.892;2023-04-24T10:48:06;15.88;;;10.93;;
52888;SDS011;41413;52.770;6.892;2023-04-24T10:53:37;17.05;;;11.63;;
52888;SDS011;41413;52.770;6.892;2023-04-24T10:56:05;19.65;;;11.65;;
52888;SDS011;41413;52.770;6.892;2023-04-24T10:58:37;15.38;;;10.85;;
52888;SDS011;41413;52.770;6.892;2023-04-24T11:01:25;14.88;;;9.50;;
52888;SDS011;41413;52.770;6.892;2023-04-24T11:03:54;17.08;;;10.55;;
52888;SDS011;41413;52.770;6.892;2023-04-24T11:06:29;12.60;;;7.68;;
52888;SDS011;41413;52.770;6.892;2023-04-24T11:09:07;19.10;;;8.13;;
52888;SDS011;41413;52.770;6.892;2023-04-24T11:11:36;9.82;;;7.03;;
52888;SDS011;41413;52.770;6.892;2023-04-24T11:14:04;11.88;;;5.55;;
52888;SDS011;41413;52.770;6.892;2023-04-24T11:16:43;8.13;;;6.65;;
52888;SDS011;41413;52.770;6.892;2023-04-24T11:19:26;10.93;;;7.20;;
52888;SDS011;41413;52.770;6.892;2023-04-24T11:21:55;16.88;;;8.88;;
52888;SDS011;41413;52.770;6.892;2023-04-24T11:29:44;13.07;;;5.78;;
52888;SDS011;41413;52.770;6.892;2023-04-24T11:32:53;12.77;;;6.45;;
52888;SDS011;41413;52.770;6.892;2023-04-24T11:35:03;13.63;;;7.60;;
52888;SDS011;41413;52.770;6.892;2023-04-24T11:37:33;9.25;;;7.20;;
52888;SDS011;41413;52.770;6.892;2023-04-24T11:40:01;12.50;;;6.05;;
52888;SDS011;41413;52.770;6.892;2023-04-24T11:42:33;12.75;;;6.05;;
52888;SDS011;41413;52.770;6.892;2023-04-24T11:45:07;11.50;;;6.38;;
52888;SDS011;41413;52.770;6.892;2023-04-24T11:47:35;15.32;;;5.72;;
52888;SDS011;41413;52.770;6.892;2023-04-24T11:50:04;10.13;;;5.90;;
52888;SDS011;41413;52.770;6.892;2023-04-24T11:52:33;11.25;;;6.63;;
52888;SDS011;41413;52.770;6.892;2023-04-24T11:55:03;10.43;;;6.20;;
52888;SDS011;41413;52.770;6.892;2023-04-24T11:57:30;10.05;;;5.63;;
52888;SDS011;41413;52.770;6.892;2023-04-24T12:00:00;6.55;;;4.60;;
52888;SDS011;41413;52.770;6.892;2023-04-24T12:02:29;13.02;;;4.72;;
52888;SDS011;41413;52.770;6.892;2023-04-24T12:04:56;10.25;;;4.57;;
52888;SDS011;41413;52.770;6.892;2023-04-24T12:07:24;8.00;;;4.63;;
52888;SDS011;41413;52.770;6.892;2023-04-24T12:09:57;12.23;;;5.82;;
52888;SDS011;41413;52.770;6.892;2023-04-24T12:12:26;11.52;;;4.75;;
52888;SDS011;41413;52.770;6.892;2023-04-24T12:14:54;10.50;;;5.20;;
52888;SDS011;41413;52.770;6.892;2023-04-24T12:17:30;9.88;;;4.20;;
52888;SDS011;41413;52.770;6.892;2023-04-24T12:20:07;8.93;;;4.63;;
52888;SDS011;41413;52.770;6.892;2023-04-24T12:22:49;7.68;;;3.97;;
52888;SDS011;41413;52.770;6.892;2023-04-24T12:25:21;6.22;;;3.85;;
52888;SDS011;41413;52.770;6.892;2023-04-24T12:30:30;8.73;;;3.90;;
52888;SDS011;41413;52.770;6.892;2023-04-24T12:33:03;7.20;;;3.95;;
52888;SDS011;41413;52.770;6.892;2023-04-24T12:35:31;12.05;;;4.07;;
52888;SDS011;41413;52.770;6.892;2023-04-24T12:38:06;7.35;;;4.07;;
52888;SDS011;41413;52.770;6.892;2023-04-24T12:40:34;5.10;;;3.10;;
52888;SDS011;41413;52.770;6.892;2023-04-24T12:43:01;11.70;;;4.30;;
52888;SDS011;41413;52.770;6.892;2023-04-24T12:45:28;8.90;;;3.60;;
52888;SDS011;41413;52.770;6.892;2023-04-24T12:47:55;8.85;;;3.13;;
52888;SDS011;41413;52.770;6.892;2023-04-24T12:50:22;5.45;;;2.72;;
52888;SDS011;41413;52.770;6.892;2023-04-24T12:52:48;8.18;;;3.42;;
52888;SDS011;41413;52.770;6.892;2023-04-24T12:55:15;9.65;;;3.50;;
52888;SDS011;41413;52.770;6.892;2023-04-24T12:57:42;6.00;;;3.63;;
52888;SDS011;41413;52.770;6.892;2023-04-24T13:00:09;6.25;;;3.72;;
52888;SDS011;41413;52.770;6.892;2023-04-24T13:02:36;7.72;;;3.50;;
52888;SDS011;41413;52.770;6.892;2023-04-24T13:05:03;6.65;;;3.35;;
52888;SDS011;41413;52.770;6.892;2023-04-24T13:07:30;9.70;;;3.97;;
52888;SDS011;41413;52.770;6.892;2023-04-24T13:09:57;6.57;;;3.63;;
52888;SDS011;41413;52.770;6.892;2023-04-24T13:12:24;4.93;;;2.35;;
52888;SDS011;41413;52.770;6.892;2023-04-24T13:14:51;6.03;;;3.15;;
52888;SDS011;41413;52.770;6.892;2023-04-24T13:17:18;7.15;;;3.60;;
52888;SDS011;41413;52.770;6.892;2023-04-24T13:19:45;7.00;;;3.50;;
52888;SDS011;41413;52.770;6.892;2023-04-24T13:22:12;5.53;;;2.92;;
52888;SDS011;41413;52.770;6.892;2023-04-24T13:24:39;6.93;;;3.25;;
52888;SDS011;41413;52.770;6.892;2023-04-24T13:27:07;7.97;;;2.90;;
52888;SDS011;41413;52.770;6.892;2023-04-24T13:29:35;6.78;;;2.90;;
52888;SDS011;41413;52.770;6.892;2023-04-24T13:32:02;2.53;;;2.10;;
52888;SDS011;41413;52.770;6.892;2023-04-24T13:34:29;3.25;;;2.15;;
52888;SDS011;41413;52.770;6.892;2023-04-24T13:36:56;12.35;;;3.00;;
52888;SDS011;41413;52.770;6.892;2023-04-24T13:39:24;6.30;;;2.35;;
52888;SDS011;41413;52.770;6.892;2023-04-24T13:41:52;7.82;;;3.55;;
52888;SDS011;41413;52.770;6.892;2023-04-24T13:44:20;5.00;;;2.33;;
52888;SDS011;41413;52.770;6.892;2023-04-24T13:46:48;5.63;;;2.10;;
52888;SDS011;41413;52.770;6.892;2023-04-24T13:49:17;9.50;;;3.13;;
52888;SDS011;41413;52.770;6.892;2023-04-24T13:51:45;6.00;;;2.78;;
52888;SDS011;41413;52.770;6.892;2023-04-24T13:54:12;7.57;;;2.45;;
52888;SDS011;41413;52.770;6.892;2023-04-24T13:56:39;5.22;;;2.45;;
52888;SDS011;41413;52.770;6.892;2023-04-24T13:59:06;10.10;;;3.60;;
52888;SDS011;41413;52.770;6.892;2023-04-24T14:01:33;10.50;;;3.10;;
52888;SDS011;41413;52.770;6.892;2023-04-24T14:04:00;7.97;;;2.78;;
52888;SDS011;41413;52.770;6.892;2023-04-24T14:06:27;4.47;;;2.78;;
52888;SDS011;41413;52.770;6.892;2023-04-24T14:08:54;9.90;;;3.60;;
52888;SDS011;41413;52.770;6.892;2023-04-24T14:11:20;8.30;;;3.20;;
52888;SDS011;41413;52.770;6.892;2023-04-24T14:13:48;9.25;;;4.32;;
52888;SDS011;41413;52.770;6.892;2023-04-24T14:16:15;5.30;;;3.00;;
52888;SDS011;41413;52.770;6.892;2023-04-24T14:18:42;3.90;;;3.00;;
52888;SDS011;41413;52.770;6.892;2023-04-24T14:21:09;3.78;;;2.13;;
52888;SDS011;41413;52.770;6.892;2023-04-24T14:23:36;6.40;;;2.65;;
52888;SDS011;41413;52.770;6.892;2023-04-24T14:26:02;8.82;;;3.25;;
52888;SDS011;41413;52.770;6.892;2023-04-24T14:28:29;2.75;;;2.03;;
52888;SDS011;41413;52.770;6.892;2023-04-24T14:30:56;3.42;;;2.22;;
52888;SDS011;41413;52.770;6.892;2023-04-24T14:33:22;6.22;;;2.10;;
52888;SDS011;41413;52.770;6.892;2023-04-24T14:35:49;5.97;;;2.33;;
52888;SDS011;41413;52.770;6.892;2023-04-24T14:38:16;2.88;;;2.17;;
52888;SDS011;41413;52.770;6.892;2023-04-24T14:40:42;3.42;;;2.50;;
52888;SDS011;41413;52.770;6.892;2023-04-24T14:43:29;4.65;;;3.08;;
52888;SDS011;41413;52.770;6.892;2023-04-24T14:45:56;7.95;;;2.53;;
52888;SDS011;41413;52.770;6.892;2023-04-24T14:48:23;10.32;;;2.92;;
52888;SDS011;41413;52.770;6.892;2023-04-24T14:50:49;14.35;;;3.38;;
52888;SDS011;41413;52.770;6.892;2023-04-24T14:53:16;8.82;;;3.33;;
52888;SDS011;41413;52.770;6.892;2023-04-24T14:55:43;9.07;;;4.28;;
52888;SDS011;41413;52.770;6.892;2023-04-24T14:58:10;10.65;;;3.83;;